Bahías de Huatulco International Airport
MMBT : rendu visible

Aérodrome :











RETROUVEZ-NOUS SUR...

 
LOGIN :

S'inscrire | Disclaimer

   EN    FR    IT 

 









Légende :    VFR   VFR Marginal   IFR   IFR Intensif   IFR Très Intensif
Visi : 
Plafond : 
>= 8 km
>= 3000ft
5 à 8 km
1000 à 3000 ft
1500m à 5 km
500 à 1000 ft
800 à 1500m
200 à 500 ft
< 800m
< 200 ft
Symboles :   Orages  Brouillard  Fortes neiges  Fortes précipitations  Vent > 20 kt






- Altitude de l'aérodrome : 464 ft
- Code IATA : HUX


MMBT - Bahías de Huatulco International

DERNIER METAR :
  • 121842Z 20010KT 7SM FEW040 31/22 A2993 RMK 8/100

METARs EXPIRÉS :
  • 121743Z 22008KT 7SM FEW040 31/22 A2996 RMK 8/100
  • 121655Z 00000KT 7SM SKC 31/22 A2998

TAF TAF MMBT
Valide du 12 à 18h jusqu'au 13 à 18h UTC


121618Z 1218/1318 20010KT P6SM SKC
FM130000 23010KT P6SM SCT020 SCT100
FM131600 12010KT P6SM SCT020



MET'MAP, la Météo Aéronautique d'un coup d'oeil ! - Copyright ORBIFLY Décembre 2007 - Disclaimer

ORBIFLY MET'MAP TEAM :

Programmation & Développement : Alexandra Zaïnal
Sur une idée originale de : Baudouin d'Aumeries
Assistance à la programmation : Marc-Olivier Méhu
Soutien technique & logistique : Manuel Goepfert

Contact : metmap@orbifly.com




SOURCES & CREDITS :

   NOAA       Earth
Advisory